Time;durP1;ratioP1;P1;durP2;ratioP2;P2;SDS_P1;SDS_P2;PMS_P1;PMS_P2;Temp;Humidity;BMP_temperature;BMP_pressure;BME280_temperature;BME280_humidity;BME280_pressure;Samples;Min_cycle;Max_cycle;Signal;HPM_P1;HPM_P2
2023/06/22 06:13:50;;;;;;;;;12.00;9.67;;;;;22.91;60.17;101176.81;5099549;27;45938;-70
2023/06/22 06:16:15;;;;;;;;;15.33;12.00;;;;;23.03;60.03;101182.84;5083347;27;45448;-71
2023/06/22 06:18:40;;;;;;;;;10.67;10.67;;;;;23.15;59.92;101184.34;5087411;27;45959;-69
2023/06/22 06:21:05;;;;;;;;;8.00;8.00;;;;;23.33;59.44;101186.19;5081520;27;45776;-69
2023/06/22 06:23:31;;;;;;;;;6.00;6.00;;;;;23.55;59.06;101189.44;5087079;27;45584;-69
2023/06/22 06:25:56;;;;;;;;;9.67;7.33;;;;;23.75;58.87;101186.50;5088394;27;46301;-68
2023/06/22 06:28:22;;;;;;;;;9.00;9.00;;;;;23.93;58.25;101189.16;5089348;27;45397;-69
2023/06/22 06:30:47;;;;;;;;;8.33;8.33;;;;;24.13;57.64;101186.25;5084256;27;45507;-69
2023/06/22 06:33:13;;;;;;;;;11.00;9.00;;;;;24.30;57.67;101176.31;5089027;27;46203;-69
2023/06/22 06:35:38;;;;;;;;;8.00;7.67;;;;;24.46;57.65;101175.53;5086689;27;45520;-69
2023/06/22 06:38:03;;;;;;;;;9.67;8.67;;;;;24.59;57.20;101162.34;5089464;27;45326;-71
2023/06/22 06:40:29;;;;;;;;;13.67;12.00;;;;;24.65;56.53;101157.28;5089474;27;45448;-70
2023/06/22 06:42:54;;;;;;;;;13.33;13.33;;;;;24.65;56.45;101154.56;5089441;27;45351;-70
2023/06/22 06:45:22;;;;;;;;;15.67;12.33;;;;;24.65;56.36;101144.56;5088547;27;45614;-70
2023/06/22 06:47:48;;;;;;;;;13.33;13.33;;;;;24.65;56.67;101147.28;5088341;27;45491;-70
2023/06/22 06:50:14;;;;;;;;;10.33;10.33;;;;;24.64;56.45;101139.28;5082381;27;45425;-70
2023/06/22 06:52:40;;;;;;;;;13.33;13.33;;;;;24.60;56.64;101145.03;5080584;27;46626;-70
2023/06/22 06:55:10;;;;;;;;;13.00;11.67;;;;;24.59;56.37;101147.91;5088447;27;45297;-71
2023/06/22 06:57:37;;;;;;;;;15.33;13.00;;;;;24.59;56.39;101147.91;5089810;27;45478;-70
2023/06/22 07:00:09;;;;;;;;;14.67;12.33;;;;;24.57;56.21;101158.09;5085849;27;45663;-71
2023/06/22 07:02:34;;;;;;;;;13.33;12.00;;;;;24.53;56.55;101143.16;5081133;27;45581;-71
2023/06/22 07:04:59;;;;;;;;;13.67;13.00;;;;;24.53;56.45;101149.44;5076926;27;45620;-71
2023/06/22 07:07:25;;;;;;;;;12.67;12.67;;;;;24.51;56.55;101143.31;5087897;27;45617;-71
2023/06/22 07:09:50;;;;;;;;;13.00;11.67;;;;;24.50;56.26;101144.34;5081762;27;48724;-71
2023/06/22 07:12:15;;;;;;;;;14.33;13.67;;;;;24.36;56.37;101120.56;5087655;27;46029;-71
2023/06/22 07:14:41;;;;;;;;;12.67;10.33;;;;;24.48;56.95;101139.06;5084421;27;47069;-71
2023/06/22 07:17:06;;;;;;;;;15.33;13.67;;;;;24.51;56.62;101127.03;5085758;27;46522;-70
2023/06/22 07:19:33;;;;;;;;;19.00;17.33;;;;;24.50;56.44;101121.78;5084961;27;45343;-70
2023/06/22 07:21:58;;;;;;;;;15.00;13.33;;;;;24.54;56.82;101117.72;5078300;27;46054;-70
2023/06/22 07:24:24;;;;;;;;;14.00;14.00;;;;;24.59;56.40;101128.91;5073753;27;45496;-70
2023/06/22 07:26:50;;;;;;;;;15.67;15.67;;;;;24.64;56.65;101128.44;5072740;27;45410;-70
2023/06/22 07:29:17;;;;;;;;;19.67;18.00;;;;;24.69;56.44;101128.78;5066526;28;45893;-71
2023/06/22 07:31:42;;;;;;;;;16.67;16.33;;;;;24.73;56.59;101132.88;5066784;27;45693;-70
2023/06/22 07:34:07;;;;;;;;;17.67;17.67;;;;;24.74;56.45;101138.09;5071696;27;46043;-70
2023/06/22 07:36:35;;;;;;;;;20.67;18.33;;;;;24.79;56.33;101145.75;5061028;27;45513;-71
2023/06/22 07:39:00;;;;;;;;;17.00;15.67;;;;;24.82;56.27;101152.72;5069260;27;45549;-71
2023/06/22 07:41:26;;;;;;;;;17.67;17.67;;;;;24.77;56.07;101139.63;5071355;27;46215;-70
2023/06/22 07:43:51;;;;;;;;;18.33;18.33;;;;;24.83;55.92;101149.88;5072252;27;46679;-70
2023/06/22 07:46:16;;;;;;;;;17.00;16.67;;;;;24.88;56.11;101152.06;5073733;27;45466;-71
2023/06/22 07:48:43;;;;;;;;;19.00;18.00;;;;;24.90;56.03;101166.34;5067754;27;45806;-71
2023/06/22 07:51:09;;;;;;;;;19.33;19.33;;;;;24.91;56.33;101154.47;5075348;27;47740;-71
2023/06/22 07:53:35;;;;;;;;;17.33;15.00;;;;;24.92;56.17;101152.56;5071938;27;45697;-71
2023/06/22 07:56:06;;;;;;;;;21.00;19.67;;;;;24.86;55.75;101140.53;5075144;27;45505;-70
2023/06/22 07:58:32;;;;;;;;;19.33;17.67;;;;;24.94;55.79;101156.00;5067397;27;45659;-71
2023/06/22 08:00:57;;;;;;;;;20.67;19.67;;;;;24.94;56.32;101156.00;5067122;27;45374;-71
2023/06/22 08:03:22;;;;;;;;;18.67;17.67;;;;;24.95;56.23;101146.81;5074141;28;45525;-70
2023/06/22 08:05:48;;;;;;;;;19.00;18.33;;;;;24.95;55.84;101146.81;5072732;28;46534;-70
2023/06/22 08:08:14;;;;;;;;;18.67;18.67;;;;;24.96;55.97;101146.66;5066369;28;45893;-71
2023/06/22 08:10:39;;;;;;;;;20.67;18.67;;;;;24.98;55.74;101138.34;5071064;27;46111;-70
2023/06/22 08:13:05;;;;;;;;;22.67;20.00;;;;;25.02;55.93;101147.00;5063113;27;45488;-70
2023/06/22 08:15:30;;;;;;;;;19.33;19.00;;;;;25.00;55.97;101145.31;5073689;28;52805;-70
2023/06/22 08:17:55;;;;;;;;;20.33;18.00;;;;;25.00;55.73;101145.31;5065132;27;45447;-70
2023/06/22 08:20:21;;;;;;;;;23.00;21.33;;;;;25.01;56.16;101154.28;5073483;28;46566;-71
2023/06/22 08:22:46;;;;;;;;;22.67;22.33;;;;;25.01;56.03;101157.00;5068974;27;45482;-70
2023/06/22 08:25:12;;;;;;;;;22.00;21.33;;;;;25.02;55.29;101157.88;5071961;27;45466;-70
2023/06/22 08:27:38;;;;;;;;;22.67;22.67;;;;;24.94;56.00;101148.72;5073813;28;45666;-70
2023/06/22 08:30:04;;;;;;;;;21.00;20.33;;;;;24.99;55.87;101150.91;5073370;28;45710;-70
2023/06/22 08:32:29;;;;;;;;;24.00;22.00;;;;;25.00;56.01;101156.16;5073526;27;45408;-70
2023/06/22 08:34:56;;;;;;;;;23.33;23.33;;;;;25.01;55.95;101146.13;5065181;27;45548;-70
2023/06/22 08:37:30;;;;;;;;;26.67;24.33;;;;;25.01;55.80;101151.56;5073994;28;45518;-70
2023/06/22 08:39:56;;;;;;;;;23.33;21.67;;;;;25.01;56.11;101135.28;5067713;27;46942;-71
2023/06/22 08:42:21;;;;;;;;;24.67;22.67;;;;;25.03;56.13;101145.97;5065693;28;45488;-70
2023/06/22 08:44:46;;;;;;;;;28.67;24.33;;;;;25.03;56.08;101140.53;5071983;27;45356;-71
2023/06/22 08:47:11;;;;;;;;;24.33;22.67;;;;;25.03;55.62;101145.97;5070706;27;45629;-70
2023/06/22 08:49:37;;;;;;;;;27.67;24.33;;;;;25.03;55.71;101145.97;5073263;27;52099;-71
2023/06/22 08:52:02;;;;;;;;;26.00;21.67;;;;;25.02;56.04;101155.16;5072586;27;55831;-70
2023/06/22 08:54:27;;;;;;;;;25.33;23.67;;;;;25.02;55.87;101156.00;5072141;28;45718;-70
2023/06/22 08:56:53;;;;;;;;;25.33;23.33;;;;;25.04;55.78;101150.38;5074280;27;49655;-70
2023/06/22 08:59:18;;;;;;;;;23.00;23.00;;;;;25.04;56.17;101153.09;5064965;27;46976;-70
2023/06/22 09:01:48;;;;;;;;;23.00;23.00;;;;;25.03;55.79;101148.69;5071015;27;54637;-70
2023/06/22 09:04:13;;;;;;;;;23.33;22.67;;;;;25.03;56.24;101154.13;5072676;27;45550;-70
2023/06/22 09:06:44;;;;;;;;;22.00;20.67;;;;;25.03;56.05;101152.28;5072300;28;45877;-70
2023/06/22 09:09:09;;;;;;;;;26.00;24.00;;;;;25.02;55.88;101155.16;5069459;27;46935;-70
2023/06/22 09:11:35;;;;;;;;;22.33;22.33;;;;;25.04;56.08;101153.97;5070129;27;45673;-70
2023/06/22 09:14:00;;;;;;;;;22.67;21.33;;;;;25.04;56.15;101162.09;5073527;27;45363;-70
2023/06/22 09:16:25;;;;;;;;;22.67;21.00;;;;;25.04;55.78;101163.97;5068544;27;45539;-70
2023/06/22 09:18:51;;;;;;;;;25.00;23.33;;;;;25.06;55.66;101172.81;5072545;27;45413;-70
2023/06/22 09:21:16;;;;;;;;;24.00;22.67;;;;;25.06;55.98;101167.38;5073865;27;45287;-70
2023/06/22 09:23:41;;;;;;;;;22.67;22.67;;;;;25.06;56.17;101170.91;5074543;27;45587;-71
2023/06/22 09:26:07;;;;;;;;;20.33;19.00;;;;;25.05;56.34;101165.69;5072229;27;45527;-73
2023/06/22 09:28:33;;;;;;;;;22.67;22.67;;;;;25.07;55.82;101172.66;5067915;27;46081;-71
2023/06/22 09:30:59;;;;;;;;;21.67;20.00;;;;;25.13;55.71;101179.25;5067081;27;45331;-71
2023/06/22 09:33:26;;;;;;;;;21.33;20.67;;;;;25.17;55.38;101172.47;5073769;28;45454;-71
2023/06/22 09:35:51;;;;;;;;;17.67;16.67;;;;;25.24;55.48;101180.78;5073196;27;45483;-71
2023/06/22 09:38:17;;;;;;;;;17.33;15.00;;;;;25.29;55.86;101183.84;5073457;27;46076;-71
2023/06/22 09:40:42;;;;;;;;;16.33;15.00;;;;;25.35;55.33;101193.19;5065283;27;45459;-71
2023/06/22 09:43:07;;;;;;;;;17.67;15.67;;;;;25.39;55.27;101192.66;5073938;28;45433;-71
2023/06/22 09:45:33;;;;;;;;;16.33;16.00;;;;;25.45;54.82;101198.44;5072440;27;45483;-71
2023/06/22 09:47:58;;;;;;;;;12.33;12.00;;;;;25.48;55.11;101207.13;5073272;28;45626;-71
2023/06/22 09:50:23;;;;;;;;;15.33;15.33;;;;;25.50;54.78;101202.34;5071831;28;59081;-71
2023/06/22 09:52:54;;;;;;;;;16.67;16.67;;;;;25.54;55.09;101200.13;5073395;28;45386;-71
2023/06/22 09:55:19;;;;;;;;;19.00;16.33;;;;;25.58;54.43;101206.13;5073670;27;45467;-71
2023/06/22 09:57:45;;;;;;;;;16.00;14.00;;;;;25.60;54.82;101204.06;5074279;28;46294;-71
2023/06/22 10:00:13;;;;;;;;;13.00;12.67;;;;;25.63;54.82;101204.56;5073309;27;45567;-71
2023/06/22 10:02:39;;;;;;;;;14.67;14.67;;;;;25.65;54.30;101210.69;5072507;27;45457;-71
2023/06/22 10:05:04;;;;;;;;;14.33;13.00;;;;;25.69;54.66;101213.91;5072045;27;45537;-71
2023/06/22 10:07:29;;;;;;;;;15.33;12.67;;;;;25.73;54.66;101214.41;5072150;27;46086;-71
2023/06/22 10:09:55;;;;;;;;;14.33;13.00;;;;;25.75;54.13;101212.38;5072413;27;45709;-71
2023/06/22 10:12:20;;;;;;;;;11.33;11.33;;;;;25.77;54.12;101222.06;5072318;28;45340;-71
2023/06/22 10:14:45;;;;;;;;;13.33;13.00;;;;;25.79;54.44;101219.19;5072827;28;54646;-71
2023/06/22 10:17:10;;;;;;;;;17.00;16.00;;;;;25.84;54.48;101224.94;5072288;27;46110;-71
2023/06/22 10:19:37;;;;;;;;;11.33;11.33;;;;;25.85;53.72;101231.22;5072600;27;45562;-71
2023/06/22 10:22:03;;;;;;;;;13.33;11.67;;;;;25.84;54.11;101233.09;5072548;27;45390;-71
2023/06/22 10:24:29;;;;;;;;;13.00;13.00;;;;;25.87;54.05;101240.91;5072663;27;45465;-71
2023/06/22 10:26:54;;;;;;;;;12.67;11.00;;;;;25.88;54.18;101239.03;5067315;28;61404;-71
2023/06/22 10:29:20;;;;;;;;;11.67;10.33;;;;;25.88;53.98;101239.03;5071519;27;46046;-71
2023/06/22 10:31:45;;;;;;;;;6.00;6.00;;;;;25.88;53.62;101245.31;5071299;28;45468;-71
2023/06/22 10:34:10;;;;;;;;;13.00;11.33;;;;;25.90;53.74;101251.44;5072049;28;53839;-71
2023/06/22 10:36:36;;;;;;;;;11.33;10.67;;;;;25.90;53.94;101247.84;5072417;28;54357;-71
2023/06/22 10:39:02;;;;;;;;;8.33;8.00;;;;;25.91;53.91;101247.69;5072433;27;47373;-71
2023/06/22 10:41:29;;;;;;;;;10.33;10.33;;;;;25.92;53.96;101256.72;5071482;27;45732;-71
2023/06/22 10:43:55;;;;;;;;;10.00;8.67;;;;;25.92;53.48;101254.81;5072946;28;45544;-71
2023/06/22 10:46:20;;;;;;;;;12.33;12.00;;;;;25.95;53.54;101266.41;5071331;28;46115;-71
2023/06/22 10:48:46;;;;;;;;;10.67;10.67;;;;;25.96;54.05;101268.94;5072528;28;45487;-71
2023/06/22 10:51:11;;;;;;;;;9.67;9.67;;;;;25.96;53.32;101279.81;5072326;28;45717;-71
2023/06/22 10:53:36;;;;;;;;;11.67;9.33;;;;;25.96;53.80;101279.81;5072709;27;45840;-71
2023/06/22 10:56:01;;;;;;;;;11.33;11.33;;;;;25.98;53.88;101279.63;5072062;28;57173;-71
2023/06/22 10:58:27;;;;;;;;;9.33;9.33;;;;;25.99;53.84;101287.63;5072981;27;45340;-71
2023/06/22 11:00:52;;;;;;;;;10.33;9.67;;;;;26.01;53.02;101292.88;5073305;28;45603;-71
2023/06/22 11:03:17;;;;;;;;;13.33;10.67;;;;;26.02;54.00;101294.59;5070645;28;53183;-71
2023/06/22 11:05:43;;;;;;;;;11.00;9.67;;;;;26.03;53.08;101288.13;5075763;28;57740;-72
2023/06/22 11:08:08;;;;;;;;;10.33;9.00;;;;;26.04;53.39;101285.22;5076018;27;45405;-71
2023/06/22 11:10:33;;;;;;;;;11.00;11.00;;;;;26.05;53.34;101283.38;5075366;28;45509;-71
2023/06/22 11:12:58;;;;;;;;;13.33;11.33;;;;;26.06;53.31;101285.06;5075879;27;45272;-71
2023/06/22 11:15:25;;;;;;;;;11.00;11.00;;;;;26.04;53.08;101287.94;5075169;28;51048;-71
2023/06/22 11:17:50;;;;;;;;;11.33;11.33;;;;;26.05;53.74;101288.81;5075838;27;45427;-71
2023/06/22 11:20:16;;;;;;;;;11.67;11.67;;;;;26.06;53.52;101295.94;5075085;27;45997;-71
2023/06/22 11:22:41;;;;;;;;;11.67;11.00;;;;;26.05;53.24;101291.53;5076441;28;45485;-71
2023/06/22 11:25:08;;;;;;;;;9.67;9.67;;;;;26.07;52.97;101288.66;5075547;27;46094;-71
2023/06/22 11:27:37;;;;;;;;;11.33;10.00;;;;;26.06;53.56;101287.78;5074651;27;45582;-71
2023/06/22 11:30:03;;;;;;;;;11.33;10.00;;;;;26.08;53.19;101290.34;5074461;28;45383;-71
2023/06/22 11:32:29;;;;;;;;;10.33;10.33;;;;;25.94;53.21;101276.41;5073722;27;45718;-71
2023/06/22 11:34:54;;;;;;;;;9.33;9.33;;;;;26.10;53.37;101305.47;5075383;27;45586;-71
2023/06/22 11:37:20;;;;;;;;;7.33;7.33;;;;;25.89;53.26;101268.78;5074899;27;45520;-71
2023/06/22 11:39:45;;;;;;;;;9.67;8.33;;;;;25.90;52.89;101269.63;5070855;27;45524;-71
2023/06/22 11:42:10;;;;;;;;;10.67;9.00;;;;;25.96;53.11;101276.25;5068193;27;45438;-70
2023/06/22 11:44:36;;;;;;;;;7.00;7.00;;;;;25.97;53.30;101278.78;5063778;27;47046;-71
2023/06/22 11:47:03;;;;;;;;;11.67;10.00;;;;;25.96;52.95;101285.25;5068142;27;47161;-71
2023/06/22 11:49:29;;;;;;;;;11.67;11.67;;;;;25.99;52.51;101294.94;5073798;27;45556;-71
2023/06/22 11:51:55;;;;;;;;;9.00;8.50;;;;;25.94;52.35;101287.28;5066833;27;45487;-71
2023/06/22 11:54:20;;;;;;;;;9.67;9.33;;;;;25.95;52.21;101296.31;5073414;27;46559;-71
2023/06/22 11:56:45;;;;;;;;;10.00;10.00;;;;;26.09;52.80;101317.38;5075220;27;45422;-71
2023/06/22 11:59:11;;;;;;;;;8.00;8.00;;;;;25.95;52.94;101288.16;5073935;27;45577;-71
2023/06/22 12:01:36;;;;;;;;;9.67;9.67;;;;;25.96;52.75;101279.81;5064966;27;45856;-73
2023/06/22 12:04:05;;;;;;;;;11.00;11.00;;;;;25.95;52.95;101278.09;5067524;27;45669;-71
2023/06/22 12:06:30;;;;;;;;;11.33;10.67;;;;;26.02;52.79;101294.59;5073725;27;45428;-70
2023/06/22 12:08:56;;;;;;;;;11.67;9.67;;;;;25.98;52.04;101294.09;5069023;27;45951;-71
2023/06/22 12:11:21;;;;;;;;;9.67;7.67;;;;;26.03;52.82;101297.13;5074982;27;45708;-70
2023/06/22 12:13:46;;;;;;;;;9.33;9.33;;;;;26.03;52.35;101294.41;5073976;27;45519;-70
2023/06/22 12:16:12;;;;;;;;;11.33;10.67;;;;;26.02;51.89;101292.72;5074236;27;45615;-70
2023/06/22 12:18:37;;;;;;;;;11.33;9.67;;;;;26.07;52.06;101304.97;5066777;27;45570;-71
2023/06/22 12:21:03;;;;;;;;;9.00;9.00;;;;;26.11;51.88;101304.44;5063597;27;45666;-71
2023/06/22 12:23:28;;;;;;;;;6.33;6.33;;;;;26.07;52.25;101304.97;5072622;27;46074;-70
2023/06/22 12:25:53;;;;;;;;;9.67;9.67;;;;;26.16;51.54;101309.38;5072992;28;46805;-70
2023/06/22 12:28:19;;;;;;;;;9.33;8.00;;;;;26.28;52.19;101327.03;5075241;27;45502;-71
2023/06/22 12:30:44;;;;;;;;;9.00;9.00;;;;;26.17;52.14;101320.06;5073246;27;45569;-71
2023/06/22 12:33:09;;;;;;;;;7.67;7.33;;;;;26.17;51.86;101322.78;5074487;27;46477;-71
2023/06/22 12:35:35;;;;;;;;;10.00;9.67;;;;;26.26;52.30;101334.53;5072680;27;45537;-72
2023/06/22 12:38:00;;;;;;;;;9.00;7.33;;;;;26.24;51.71;101328.38;5074520;27;45416;-71
2023/06/22 12:40:25;;;;;;;;;9.00;9.00;;;;;26.29;52.33;101345.06;5074296;27;45503;-70
2023/06/22 12:42:51;;;;;;;;;7.33;7.33;;;;;26.31;51.90;101343.03;5074757;27;46623;-70
2023/06/22 12:45:16;;;;;;;;;9.00;9.00;;;;;26.32;51.86;101338.44;5067473;27;45864;-70
2023/06/22 12:47:43;;;;;;;;;7.33;7.33;;;;;26.39;51.95;101349.47;5066538;27;45746;-70
2023/06/22 12:50:08;;;;;;;;;8.00;8.00;;;;;26.38;52.43;101339.63;5069875;27;45434;-69
2023/06/22 12:52:39;;;;;;;;;7.00;7.00;;;;;26.60;52.01;101378.84;5069146;28;45680;-72
2023/06/22 12:55:04;;;;;;;;;9.00;8.00;;;;;26.44;51.86;101349.78;5071622;27;45559;-72
2023/06/22 12:57:30;;;;;;;;;8.67;7.67;;;;;26.46;52.72;101347.78;5062656;27;45726;-73
2023/06/22 12:59:55;;;;;;;;;9.67;9.67;;;;;26.68;51.88;101376.13;5064147;28;45519;-73
2023/06/22 13:02:20;;;;;;;;;8.00;8.00;;;;;26.47;52.41;101345.88;5073235;27;45941;-71
2023/06/22 13:04:46;;;;;;;;;8.00;8.00;;;;;26.51;52.70;101355.41;5072840;27;45450;-74
2023/06/22 13:07:11;;;;;;;;;8.67;7.00;;;;;26.50;52.21;101340.97;5064464;27;45648;-74
2023/06/22 13:09:37;;;;;;;;;7.00;7.00;;;;;26.55;52.12;101344.00;5074303;27;45700;-72
2023/06/22 13:12:02;;;;;;;;;8.67;8.67;;;;;26.65;52.43;101362.00;5069531;27;46551;-72
2023/06/22 13:14:27;;;;;;;;;10.00;8.33;;;;;26.59;52.72;101352.66;5073284;28;45460;-72
2023/06/22 13:16:53;;;;;;;;;8.67;7.33;;;;;26.60;52.78;101350.81;5062706;27;45816;-71
2023/06/22 13:19:18;;;;;;;;;7.00;7.00;;;;;26.70;52.49;101381.41;5074126;27;45726;-71
2023/06/22 13:21:43;;;;;;;;;8.00;8.00;;;;;26.62;52.57;101365.94;5072149;27;46029;-71
2023/06/22 13:24:09;;;;;;;;;8.00;8.00;;;;;26.64;52.11;101357.59;5068753;27;45546;-70
2023/06/22 13:26:34;;;;;;;;;7.33;6.67;;;;;26.63;52.26;101356.75;5070024;27;45848;-71
2023/06/22 13:28:59;;;;;;;;;7.00;7.00;;;;;26.68;52.40;101369.81;5069537;27;45606;-71
2023/06/22 13:31:25;;;;;;;;;12.67;10.67;;;;;26.66;52.56;101361.84;5064772;27;46358;-71
2023/06/22 13:33:52;;;;;;;;;14.33;10.00;;;;;26.62;52.31;101349.59;5073824;27;45386;-71
2023/06/22 13:36:17;;;;;;;;;8.00;6.33;;;;;26.72;51.74;101375.78;5073455;27;45524;-71
2023/06/22 13:38:43;;;;;;;;;8.33;8.00;;;;;26.63;51.79;101359.47;5073557;27;45488;-71
2023/06/22 13:41:08;;;;;;;;;10.00;8.33;;;;;26.62;52.17;101376.81;5064619;27;45407;-71
2023/06/22 13:43:33;;;;;;;;;6.00;6.00;;;;;26.58;51.79;101372.75;5073319;27;45851;-71
2023/06/22 13:45:59;;;;;;;;;14.00;9.00;;;;;26.60;51.64;101380.75;5068840;28;45862;-72
2023/06/22 13:48:25;;;;;;;;;16.67;13.67;;;;;26.66;51.14;101401.81;5073278;27;45551;-72
2023/06/22 13:50:51;;;;;;;;;16.67;15.33;;;;;26.78;51.21;101432.25;5071303;27;45732;-71
2023/06/22 13:53:16;;;;;;;;;17.33;16.67;;;;;26.75;50.98;101432.59;5068066;27;45483;-71
2023/06/22 13:55:42;;;;;;;;;19.00;16.33;;;;;26.71;50.16;101437.53;5066716;28;49077;-70
2023/06/22 13:58:07;;;;;;;;;18.00;17.67;;;;;26.67;50.74;101431.59;5073003;27;45763;-70
2023/06/22 14:00:32;;;;;;;;;17.00;14.33;;;;;26.62;50.84;101430.41;5071282;27;45462;-70
2023/06/22 14:02:58;;;;;;;;;18.00;16.67;;;;;26.60;50.67;101435.19;5071262;27;45908;-71
2023/06/22 14:05:23;;;;;;;;;13.00;13.00;;;;;26.57;50.60;101437.22;5069786;27;46860;-70
2023/06/22 14:07:48;;;;;;;;;17.00;17.00;;;;;26.54;50.71;101429.41;5070284;27;56594;-70
2023/06/22 14:10:13;;;;;;;;;14.67;13.00;;;;;26.54;50.82;101431.28;5069114;27;53321;-70
2023/06/22 14:12:39;;;;;;;;;20.67;18.67;;;;;26.52;50.07;101434.16;5084574;27;45601;-69
2023/06/22 14:15:05;;;;;;;;;14.00;12.67;;;;;26.50;50.94;101432.63;5064672;27;47096;-71
2023/06/22 14:17:30;;;;;;;;;19.33;18.33;;;;;26.48;50.22;101426.53;5059466;27;45512;-71
2023/06/22 14:19:55;;;;;;;;;19.00;19.00;;;;;26.46;51.05;101432.13;5066027;27;45377;-71
2023/06/22 14:22:22;;;;;;;;;18.33;18.33;;;;;26.42;50.88;101439.81;5068516;27;45327;-71
2023/06/22 14:24:48;;;;;;;;;21.00;20.33;;;;;26.37;50.59;101433.16;5066807;27;45593;-69
2023/06/22 14:27:13;;;;;;;;;21.00;19.33;;;;;26.35;50.96;101438.78;5065946;27;45601;-69
2023/06/22 14:29:39;;;;;;;;;17.00;15.67;;;;;26.35;50.43;101436.06;5072610;27;45456;-69
2023/06/22 14:32:06;;;;;;;;;14.67;14.67;;;;;26.35;50.89;101432.50;5062607;27;45481;-69
2023/06/22 14:34:32;;;;;;;;;16.67;16.67;;;;;26.35;50.89;101433.34;5074637;27;45427;-69
2023/06/22 14:36:57;;;;;;;;;14.33;14.33;;;;;26.35;50.70;101444.22;5070206;28;45478;-68
2023/06/22 14:39:22;;;;;;;;;18.00;17.00;;;;;26.33;50.08;101440.84;5071468;27;47027;-68
2023/06/22 14:41:47;;;;;;;;;16.67;16.67;;;;;26.37;50.53;101446.78;5075557;28;51454;-71
2023/06/22 14:44:13;;;;;;;;;19.00;17.67;;;;;26.37;50.25;101455.81;5074983;27;53767;-72
2023/06/22 14:46:38;;;;;;;;;19.00;19.00;;;;;26.35;50.65;101448.84;5072643;27;47392;-71
2023/06/22 14:49:03;;;;;;;;;22.00;20.67;;;;;26.34;50.19;101460.72;5066176;27;63716;-71
2023/06/22 14:51:28;;;;;;;;;25.00;23.00;;;;;26.34;50.89;101458.84;5071679;27;45742;-71
2023/06/22 14:53:54;;;;;;;;;21.67;19.33;;;;;26.33;50.75;101456.28;5075781;28;53545;-71
2023/06/22 14:56:19;;;;;;;;;17.33;17.33;;;;;26.31;50.74;101453.75;5067524;27;45479;-71
2023/06/22 14:58:45;;;;;;;;;22.33;19.00;;;;;26.29;50.29;101455.78;5070555;27;45692;-71
2023/06/22 15:01:11;;;;;;;;;20.67;20.33;;;;;26.27;49.89;101452.38;5071868;27;45541;-73
2023/06/22 15:03:36;;;;;;;;;19.67;18.67;;;;;26.25;50.50;101452.56;5073193;27;45482;-73
2023/06/22 15:06:03;;;;;;;;;21.67;18.00;;;;;26.24;50.27;101461.69;5070243;27;45618;-73
2023/06/22 15:08:29;;;;;;;;;18.00;16.67;;;;;26.20;50.69;101460.38;5073200;27;45701;-72
2023/06/22 15:10:54;;;;;;;;;16.33;14.00;;;;;26.18;50.93;101452.38;5073157;28;45442;-72
2023/06/22 15:13:20;;;;;;;;;17.67;16.00;;;;;26.21;50.31;101456.63;5072754;27;45784;-71
2023/06/22 15:15:47;;;;;;;;;15.00;14.00;;;;;26.23;51.01;101456.44;5068595;27;46025;-70
2023/06/22 15:18:13;;;;;;;;;13.33;13.33;;;;;26.25;50.91;101449.00;5067726;28;46586;-71
2023/06/22 15:20:38;;;;;;;;;15.00;14.00;;;;;26.28;50.26;101459.53;5072725;27;45646;-70
2023/06/22 15:23:05;;;;;;;;;17.67;16.67;;;;;26.31;50.78;101464.63;5075120;27;45339;-71
2023/06/22 15:25:30;;;;;;;;;16.00;16.00;;;;;26.35;50.76;101463.28;5074973;27;46081;-72
2023/06/22 15:27:56;;;;;;;;;16.00;14.67;;;;;26.37;50.15;101461.25;5063635;27;45381;-72
2023/06/22 15:30:21;;;;;;;;;17.00;17.00;;;;;26.39;50.75;101459.19;5062800;28;57571;-72
2023/06/22 15:32:47;;;;;;;;;14.67;13.67;;;;;26.42;50.78;101464.31;5075681;27;45692;-72
2023/06/22 15:35:14;;;;;;;;;17.67;15.33;;;;;26.43;50.92;101460.56;5075903;28;45582;-72
2023/06/22 15:37:39;;;;;;;;;13.67;13.00;;;;;26.45;50.39;101465.84;5075185;28;46920;-72
2023/06/22 15:40:05;;;;;;;;;17.00;14.00;;;;;26.45;50.49;101465.84;5074490;28;45413;-72
2023/06/22 15:42:31;;;;;;;;;11.67;11.67;;;;;26.46;50.81;101456.63;5067903;28;45423;-72
2023/06/22 15:44:56;;;;;;;;;15.33;15.33;;;;;26.46;50.69;101453.91;5074718;28;46940;-73
2023/06/22 15:47:22;;;;;;;;;16.33;13.33;;;;;26.47;50.92;101458.34;5074451;28;52051;-73
2023/06/22 15:49:48;;;;;;;;;16.67;13.00;;;;;26.48;50.23;101459.19;5075596;27;45561;-73
2023/06/22 15:52:17;;;;;;;;;13.67;13.67;;;;;26.48;50.31;101464.63;5071866;27;45522;-73
2023/06/22 15:54:43;;;;;;;;;15.67;15.00;;;;;26.47;50.77;101460.19;5074347;28;45753;-73
2023/06/22 15:57:12;;;;;;;;;14.00;12.00;;;;;26.48;50.47;101459.19;5075509;27;46323;-73
2023/06/22 15:59:37;;;;;;;;;14.00;13.00;;;;;26.48;50.69;101464.63;5073123;27;45332;-73
2023/06/22 16:02:03;;;;;;;;;13.67;12.33;;;;;26.49;50.11;101464.47;5067725;28;45497;-73
2023/06/22 16:04:28;;;;;;;;;14.67;14.00;;;;;26.49;50.84;101469.06;5075212;27;45647;-73
2023/06/22 16:06:53;;;;;;;;;15.00;13.00;;;;;26.49;50.81;101460.88;5073770;27;45901;-73
2023/06/22 16:09:19;;;;;;;;;14.00;12.67;;;;;26.49;50.87;101472.63;5073903;28;55602;-73
2023/06/22 16:11:44;;;;;;;;;15.00;12.67;;;;;26.48;50.29;101473.63;5075379;27;45705;-74
2023/06/22 16:14:09;;;;;;;;;12.00;11.00;;;;;26.49;50.36;101472.63;5075225;28;45347;-72
2023/06/22 16:16:35;;;;;;;;;12.33;12.33;;;;;26.49;50.46;101475.34;5071450;28;45519;-72
2023/06/22 16:19:00;;;;;;;;;13.33;13.33;;;;;26.54;50.27;101478.41;5062607;27;45717;-70
2023/06/22 16:21:25;;;;;;;;;16.00;13.00;;;;;26.55;50.60;101469.22;5068123;27;47268;-71
2023/06/22 16:23:51;;;;;;;;;14.33;12.33;;;;;26.55;50.06;101471.94;5064051;27;45610;-71
2023/06/22 16:26:16;;;;;;;;;18.67;12.33;;;;;26.60;50.55;101481.47;5072715;28;54755;-71
2023/06/22 16:28:41;;;;;;;;;13.33;12.00;;;;;26.60;49.90;101484.19;5073890;27;45550;-71
2023/06/22 16:31:06;;;;;;;;;12.33;10.67;;;;;26.59;50.09;101477.88;5073860;28;53248;-70
2023/06/22 16:33:32;;;;;;;;;12.33;11.33;;;;;26.58;50.04;101479.75;5071824;27;48182;-71
2023/06/22 16:35:57;;;;;;;;;15.67;9.67;;;;;26.60;50.81;101495.09;5071992;27;45489;-71
2023/06/22 16:38:22;;;;;;;;;13.00;11.67;;;;;26.58;50.08;101490.63;5073885;27;45582;-71
2023/06/22 16:40:48;;;;;;;;;10.33;10.33;;;;;26.59;50.16;101496.94;5074182;28;50107;-71
2023/06/22 16:43:13;;;;;;;;;11.00;11.00;;;;;26.58;50.05;101493.34;5074072;28;54026;-71
2023/06/22 16:45:38;;;;;;;;;12.33;12.33;;;;;26.58;50.74;101498.81;5074029;27;46115;-71
2023/06/22 16:48:04;;;;;;;;;12.67;11.00;;;;;26.58;50.04;101498.81;5072629;27;45473;-71
2023/06/22 16:50:29;;;;;;;;;10.33;10.33;;;;;26.57;49.98;101501.72;5073946;28;45854;-71
2023/06/22 16:52:55;;;;;;;;;14.67;11.67;;;;;26.57;50.24;101504.44;5072309;28;45695;-71
2023/06/22 16:55:22;;;;;;;;;11.00;11.00;;;;;26.57;50.09;101508.00;5072813;28;62964;-71
2023/06/22 16:57:50;;;;;;;;;11.33;11.33;;;;;26.57;50.08;101512.63;5072662;27;45410;-71
2023/06/22 17:00:16;;;;;;;;;14.67;11.00;;;;;26.57;50.03;101513.44;5056514;27;45555;-71
2023/06/22 17:02:48;;;;;;;;;10.00;10.00;;;;;26.57;50.67;101518.06;5069732;27;45486;-71
2023/06/22 17:05:14;;;;;;;;;11.00;11.00;;;;;26.57;50.20;101518.06;5073013;27;46908;-71
2023/06/22 17:07:47;;;;;;;;;9.67;9.67;;;;;26.56;50.27;101522.63;5073256;27;45666;-71
2023/06/22 17:10:13;;;;;;;;;13.00;11.33;;;;;26.56;50.14;101525.34;5072944;27;45446;-71
2023/06/22 17:12:40;;;;;;;;;10.00;10.00;;;;;26.56;50.02;101519.91;5069202;27;45766;-71
2023/06/22 17:15:08;;;;;;;;;9.00;9.00;;;;;26.57;50.69;101537.94;5068228;27;46169;-71
2023/06/22 17:17:36;;;;;;;;;9.67;9.67;;;;;26.57;50.54;101546.09;5073190;27;45563;-71